Gunlock, Kentucky
Current Conditions -  °F | °C
As of 5:35 PM on Wednesday 22 Oct 2014 (Local Time) from KPBX Reporting Station
Overcast Overcast  
Wind Chill: 47°   Ceiling: 2700
Heat Index: 47°   Visibility: 10mi
Dew Point: 43°   Wind: 0mph
Humidity: 88%   Direction: NA
Pressure: 30.22"   Gusts: NA
Location:  37.55°N, 82.92°W
Report Text: KPBX 222135Z AUTO 00000KT 10SM SCT017 OVC027 08/06 A3022 RMK AO2 T00810062
Loading
Personal Weather Stations






























Interactive Weather Map
Tropical Storm Tracking
New forecast layout! Learn more

10-Day Weather Forecast

Advertisements
Track Severe Weather on mobile